Itapetinga, Brazil
Current Conditions -  °F | °C
As of 5:00 AM on Friday 28 Nov 2014 (Local Time) from SBQV Reporting Station
Scattered Clouds Scattered Clouds  
Wind Chill: 64°   Ceiling: Unl
Heat Index: 64°   Visibility: 6mi
Dew Point: 63°   Wind: 3mph
Humidity: 94%   Direction: 110°ESE
Pressure: 30.06"   Gusts: NA
Location:  15.25°S, 40.25°W
Report Text: SBQV 280800Z 11003KT 9999 SCT010 18/17 Q1018
Loading
Personal Weather Stations






























Interactive Weather Map New forecast layout! Learn more

10-Day Weather Forecast

Advertisements
Track Severe Weather on mobile